Time;durP1;ratioP1;P1;durP2;ratioP2;P2;SDS_P1;SDS_P2;PMS_P1;PMS_P2;Temp;Humidity;BMP_temperature;BMP_pressure;BME280_temperature;BME280_humidity;BME280_pressure;Samples;Min_cycle;Max_cycle;Signal;HPM_P1;HPM_P2
2022/03/21 00:05:46;;;;;;;25.02;10.45;;;;;;;2.06;46.90;94289.63;5054192;28;20049;-90
2022/03/21 00:09:17;;;;;;;24.38;11.02;;;;;;;2.32;47.54;94320.03;5030957;28;20049;-90
2022/03/21 00:12:41;;;;;;;27.80;11.07;;;;;;;2.25;46.95;94304.47;5053440;28;20041;-90
2022/03/21 00:15:58;;;;;;;22.83;10.45;;;;;;;2.10;46.83;94267.59;5049162;28;20075;-90
2022/03/21 00:18:56;;;;;;;20.40;9.23;;;;;;;2.28;46.62;94296.34;5023924;28;20182;-91
2022/03/21 00:25:12;;;;;;;24.77;9.73;;;;;;;2.34;45.56;94294.75;5050064;28;20051;-90
2022/03/21 00:31:18;;;;;;;23.08;9.52;;;;;;;2.11;46.23;94245.94;5042380;28;20069;-90
2022/03/21 00:33:59;;;;;;;27.20;10.45;;;;;;;2.24;45.66;94264.09;5030619;28;20041;-90
2022/03/21 00:37:07;;;;;;;20.05;9.25;;;;;;;2.19;44.90;94258.72;5067338;28;20033;-89
2022/03/21 00:40:02;;;;;;;20.35;9.10;;;;;;;2.22;43.30;94248.00;5050687;28;20060;-90
2022/03/21 00:43:19;;;;;;;;;;;;;;;;;;;;;
2022/03/21 00:46:09;;;;;;;;;;;;;;;;;;;;;
2022/03/21 00:49:24;;;;;;;17.95;8.57;;;;;;;2.48;43.57;94272.38;5052801;28;20052;-90
2022/03/21 00:52:13;;;;;;;;;;;;;;;;;;;;;
2022/03/21 00:54:59;;;;;;;19.05;8.70;;;;;;;2.52;43.61;94268.41;5037894;28;20060;-90
2022/03/21 00:58:05;;;;;;;18.60;9.05;;;;;;;2.39;43.55;94242.50;5038967;28;20033;-90
2022/03/21 01:00:39;;;;;;;18.35;9.10;;;;;;;2.64;42.80;94277.22;5022094;28;20068;-91
2022/03/21 01:03:38;;;;;;;;;;;;;;;;;;;;;
2022/03/21 01:06:54;;;;;;;;;;;;;;;;;;;;;
2022/03/21 01:09:33;;;;;;;19.05;8.93;;;;;;;2.37;43.23;94228.97;5052302;28;20509;-90
2022/03/21 01:12:25;;;;;;;22.30;8.70;;;;;;;2.68;42.90;94281.00;5047157;28;20033;-90
2022/03/21 01:15:26;;;;;;;18.20;9.13;;;;;;;2.56;43.25;94261.84;5036885;28;20166;-91
2022/03/21 01:18:25;;;;;;;20.55;9.23;;;;;;;2.51;42.96;94248.72;5051816;28;20103;-90
2022/03/21 01:21:25;;;;;;;19.42;8.82;;;;;;;2.44;42.28;94235.75;5032634;28;20030;-90
2022/03/21 01:24:45;;;;;;;19.40;9.40;;;;;;;2.63;42.59;94270.44;5032711;28;20532;-89
2022/03/21 01:27:42;;;;;;;23.20;8.35;;;;;;;2.45;42.86;94242.50;5039841;28;20042;-90
2022/03/21 01:30:26;;;;;;;20.25;8.80;;;;;;;2.43;43.07;94230.78;5042205;28;20041;-89
2022/03/21 01:33:14;;;;;;;;;;;;;;;;;;;;;
2022/03/21 01:36:08;;;;;;;21.67;9.32;;;;;;;2.38;43.37;94231.34;5044088;28;20037;-90
2022/03/21 01:39:21;;;;;;;;;;;;;;;;;;;;;
2022/03/21 01:41:57;;;;;;;21.90;8.70;;;;;;;2.83;42.58;94280.06;5037923;28;20065;-90
2022/03/21 01:44:58;;;;;;;18.65;9.20;;;;;;;2.47;43.31;94229.41;5055751;28;20120;-90
2022/03/21 01:47:35;;;;;;;20.85;8.95;;;;;;;2.41;43.72;94210.31;5030647;28;20041;-90
2022/03/21 01:50:37;;;;;;;19.58;9.77;;;;;;;2.55;43.76;94231.84;5055864;28;20124;-90
2022/03/21 01:56:07;;;;;;;19.45;9.05;;;;;;;2.36;44.73;94201.53;5042013;28;20068;-90
2022/03/21 02:01:58;;;;;;;20.88;9.88;;;;;;;2.46;45.77;94218.28;5049870;28;20045;-90
2022/03/21 02:05:18;;;;;;;;;;;;;;;;;;;;;
2022/03/21 02:08:21;;;;;;;19.17;9.38;;;;;;;2.35;44.97;94192.19;5052451;28;20064;-90
2022/03/21 02:11:16;;;;;;;23.13;9.48;;;;;;;2.33;45.06;94186.41;5040157;28;20041;-91
2022/03/21 02:13:52;;;;;;;21.40;9.55;;;;;;;2.47;45.07;94209.50;5021859;28;20059;-91
2022/03/21 02:16:46;;;;;;;26.27;9.87;;;;;;;2.56;44.87;94217.91;5023734;28;20128;-90
2022/03/21 02:19:47;;;;;;;21.50;9.90;;;;;;;2.32;45.19;94179.63;5038638;28;20037;-90
2022/03/21 02:28:34;;;;;;;20.13;8.63;;;;;;;2.30;45.49;94166.94;5028654;28;20286;-90
2022/03/21 02:31:26;;;;;;;;;;;;;;;;;;;;;
2022/03/21 02:34:49;;;;;;;17.00;8.32;;;;;;;2.66;45.76;94227.91;5021985;28;20048;-91
2022/03/21 02:37:51;;;;;;;20.27;9.50;;;;;;;2.43;45.71;94184.25;5038074;28;20049;-90
2022/03/21 02:40:28;;;;;;;19.60;9.90;;;;;;;2.24;45.45;94152.97;5022061;28;20110;-90
2022/03/21 02:43:45;;;;;;;;;;;;;;;;;;;;;
2022/03/21 02:50:40;;;;;;;21.95;8.90;;;;;;;2.47;45.97;94182.88;5046888;28;20414;-90
2022/03/21 02:53:40;;;;;;;;;;;;;;;;;;;;;
2022/03/21 02:56:35;;;;;;;21.73;9.45;;;;;;;2.23;46.32;94148.00;5039713;28;20044;-91
2022/03/21 02:59:46;;;;;;;23.45;9.05;;;;;;;2.46;45.86;94183.88;5037599;28;20033;-90
2022/03/21 03:02:35;;;;;;;;;;;;;;;;;;;;;
2022/03/21 03:05:49;;;;;;;;;;;;;;;;;;;;;
2022/03/21 03:12:36;;;;;;;19.63;9.43;;;;;;;2.22;45.57;94157.53;5026023;28;20053;-91
2022/03/21 03:15:31;;;;;;;21.23;9.77;;;;;;;2.08;45.49;94133.44;5043656;28;20053;-91
2022/03/21 03:18:07;;;;;;;29.17;10.65;;;;;;;2.12;45.49;94141.63;5038271;28;20065;-91
2022/03/21 03:21:29;;;;;;;;;;;;;;;;;;;;;
2022/03/21 03:24:30;;;;;;;;;;;;;;;;;;;;;
2022/03/21 03:30:42;;;;;;;;;;;;;;;;;;;;;
2022/03/21 03:39:33;;;;;;;23.40;11.15;;;;;;;2.09;47.18;94134.25;5046501;28;20041;-89
2022/03/21 03:42:23;;;;;;;;;;;;;;;;;;;;;
2022/03/21 03:45:11;;;;;;;32.10;10.30;;;;;;;2.47;47.41;94195.81;5052676;28;20037;-90
2022/03/21 03:48:34;;;;;;;;;;;;;;;;;;;;;
2022/03/21 03:54:28;;;;;;;;;;;;;;;2.48;46.57;94197.41;5047457;28;20114;-90
2022/03/21 03:57:09;;;;;;;25.55;11.82;;;;;;;2.26;45.96;94161.34;5038236;28;19912;-91
2022/03/21 03:59:43;;;;;;;24.02;11.70;;;;;;;2.38;46.43;94184.84;5037879;28;20068;-90
2022/03/21 04:02:24;;;;;;;28.17;12.65;;;;;;;2.02;46.73;94133.44;5052845;28;20060;-91
2022/03/21 04:05:22;;;;;;;25.67;10.77;;;;;;;2.35;46.36;94179.28;5054492;28;20045;-91
2022/03/21 04:08:33;;;;;;;21.17;10.63;;;;;;;2.31;46.66;94184.03;5054568;28;20057;-90
2022/03/21 04:11:44;;;;;;;;;;;;;;;;;;;;;
2022/03/21 04:14:51;;;;;;;;;;;;;;;;;;;;;
2022/03/21 04:18:00;;;;;;;;;;;;;;;;;;;;;
2022/03/21 04:20:52;;;;;;;25.95;11.25;;;;;;;2.44;47.03;94215.09;5034454;28;20045;-90
2022/03/21 04:23:39;;;;;;;20.52;9.65;;;;;;;2.07;47.11;94151.72;5052748;28;20045;-90
2022/03/21 04:26:46;;;;;;;22.02;10.63;;;;;;;2.40;46.79;94213.09;5039905;28;20039;-90
2022/03/21 04:30:05;;;;;;;;;;;;;;;;;;;;;
2022/03/21 04:32:44;;;;;;;25.40;10.98;;;;;;;2.24;46.84;94196.13;5044905;28;20041;-90
2022/03/21 04:35:29;;;;;;;25.30;10.35;;;;;;;2.24;46.64;94196.13;5054667;28;20045;-90
2022/03/21 04:38:12;;;;;;;;;;;;;;;;;;;;;
2022/03/21 04:40:50;;;;;;;25.40;11.55;;;;;;;1.99;47.08;94157.06;5053091;28;20045;-90
2022/03/21 04:43:58;;;;;;;25.38;11.20;;;;;;;2.04;47.57;94163.22;5043708;28;20043;-90
2022/03/21 04:46:54;;;;;;;24.92;11.65;;;;;;;1.95;47.39;94155.84;5057238;28;20045;-90
2022/03/21 04:50:04;;;;;;;26.73;11.13;;;;;;;2.00;47.64;94171.56;5053145;28;20040;-91
2022/03/21 04:53:16;;;;;;;;;;;;;;;;;;;;;
2022/03/21 04:59:38;;;;;;;21.20;10.02;;;;;;;2.12;47.83;94201.03;5033735;28;20052;-90
2022/03/21 05:02:43;;;;;;;;;;;;;;;;;;;;;
2022/03/21 05:08:37;;;;;;;;;;;;;;;;;;;;;
2022/03/21 05:11:21;;;;;;;26.42;10.73;;;;;;;2.23;48.35;94228.09;5053739;28;20037;-89
2022/03/21 05:14:20;;;;;;;;;;;;;;;;;;;;;
2022/03/21 05:17:10;;;;;;;26.92;11.75;;;;;;;1.94;48.07;94183.47;5054591;28;20043;-90
2022/03/21 05:20:33;;;;;;;26.50;10.98;;;;;;;2.40;47.83;94257.03;5056023;28;20052;-90
2022/03/21 05:32:36;;;;;;;;;;;;;;;;;;;;;
2022/03/21 05:39:20;;;;;;;22.25;10.40;;;;;;;2.04;47.39;94198.63;5054950;28;20070;-90
2022/03/21 05:42:25;;;;;;;;;;;;;;;;;;;;;
2022/03/21 05:45:17;;;;;;;;;;;;;;;;;;;;;
2022/03/21 05:51:25;;;;;;;;;;;;;;;;;;;;;
2022/03/21 05:54:13;;;;;;;20.88;10.30;;;;;;;2.10;47.29;94197.84;5047531;28;20029;-87
2022/03/21 05:57:05;;;;;;;27.63;10.43;;;;;;;2.10;46.92;94197.06;5055117;28;20059;-87
2022/03/21 06:02:17;;;;;;;22.33;9.95;;;;;;;2.64;46.72;94274.63;5052447;28;20049;-86
2022/03/21 06:04:43;;;;;;;23.88;9.88;;;;;;;2.67;46.29;94273.44;5054952;28;20033;-85
2022/03/21 06:07:10;;;;;;;23.67;10.93;;;;;;;2.65;45.82;94260.69;5037443;28;20029;-85
2022/03/21 06:09:36;;;;;;;26.60;11.07;;;;;;;2.79;45.37;94278.84;5004632;28;20037;-84
2022/03/21 06:12:01;;;;;;;26.10;11.43;;;;;;;2.82;45.40;94276.69;5051834;28;20485;-88
2022/03/21 06:14:27;;;;;;;27.92;11.88;;;;;;;2.88;45.40;94282.84;5026345;28;20040;-86
2022/03/21 06:16:52;;;;;;;24.98;11.55;;;;;;;2.89;45.32;94280.06;5052589;28;20029;-85
2022/03/21 06:19:18;;;;;;;25.25;11.90;;;;;;;2.82;44.99;94268.91;5034231;28;20037;-85
2022/03/21 06:21:44;;;;;;;23.33;11.55;;;;;;;3.01;46.43;94293.25;5049594;28;20048;-85
2022/03/21 06:24:12;;;;;;;32.08;12.10;;;;;;;3.12;45.30;94300.44;5048594;28;20032;-84
2022/03/21 06:26:39;;;;;;;26.25;11.77;;;;;;;3.20;45.32;94307.25;5052710;28;20036;-84
2022/03/21 06:29:05;;;;;;;24.63;11.90;;;;;;;3.19;44.90;94281.53;5053662;28;20090;-85
2022/03/21 06:31:31;;;;;;;24.67;11.45;;;;;;;3.44;44.16;94305.88;5053404;28;20049;-85
2022/03/21 06:33:56;;;;;;;29.42;12.00;;;;;;;3.60;43.71;94311.66;5053648;28;20047;-84
2022/03/21 06:36:22;;;;;;;26.65;12.07;;;;;;;3.72;43.41;94297.16;5033459;28;20115;-84
2022/03/21 06:38:48;;;;;;;30.80;13.38;;;;;;;4.02;43.23;94309.69;5049392;28;20025;-84
2022/03/21 06:41:15;;;;;;;24.02;11.27;;;;;;;4.24;43.37;94308.47;5036914;28;20102;-84
2022/03/21 06:43:40;;;;;;;27.75;11.45;;;;;;;4.43;42.19;94295.66;5036894;28;20048;-86
2022/03/21 06:46:06;;;;;;;26.35;11.05;;;;;;;4.68;40.86;94293.97;5020414;28;20478;-87
2022/03/21 06:48:33;;;;;;;25.83;12.05;;;;;;;4.68;40.79;94288.00;5020220;28;20048;-85
2022/03/21 06:50:58;;;;;;;27.48;12.13;;;;;;;5.07;41.58;94307.81;5036831;28;20051;-86
2022/03/21 06:53:24;;;;;;;26.27;12.65;;;;;;;5.41;40.67;94301.41;5027991;28;20377;-86
2022/03/21 06:55:50;;;;;;;26.15;12.40;;;;;;;6.55;39.06;94300.50;5035981;28;20052;-86
2022/03/21 06:58:15;;;;;;;29.60;13.70;;;;;;;6.64;38.82;94296.59;5054601;28;20044;-88
2022/03/21 07:00:43;;;;;;;31.50;13.30;;;;;;;6.72;38.70;94309.34;5036999;28;20386;-85
2022/03/21 07:03:09;;;;;;;27.50;13.60;;;;;;;7.02;38.45;94313.78;5053445;28;20052;-86
2022/03/21 07:05:36;;;;;;;31.65;14.35;;;;;;;7.78;36.37;94317.56;5054914;28;20063;-86
2022/03/21 07:08:03;;;;;;;31.27;13.80;;;;;;;8.53;35.67;94303.94;5053632;28;20044;-86
2022/03/21 07:10:29;;;;;;;30.08;14.30;;;;;;;9.34;34.43;94309.22;5053019;28;20151;-85
2022/03/21 07:12:54;;;;;;;28.30;14.57;;;;;;;10.40;33.00;94311.22;5004183;28;20066;-86
2022/03/21 07:15:20;;;;;;;27.85;14.23;;;;;;;11.51;31.07;94309.44;5036160;28;20045;-87
2022/03/21 07:17:46;;;;;;;28.20;13.13;;;;;;;11.65;30.67;94296.69;5053172;28;20505;-87
2022/03/21 07:20:12;;;;;;;33.65;14.48;;;;;;;12.93;29.24;94308.16;5051052;28;20044;-86
2022/03/21 07:22:39;;;;;;;29.88;14.80;;;;;;;12.86;27.49;94291.81;5050658;28;20029;-87
2022/03/21 07:25:06;;;;;;;31.75;14.15;;;;;;;12.70;28.19;94289.09;5037078;28;20151;-87
2022/03/21 07:27:32;;;;;;;25.13;14.07;;;;;;;13.54;27.33;94304.97;5053250;28;20111;-86
2022/03/21 07:29:58;;;;;;;29.15;14.40;;;;;;;12.39;28.24;94288.13;5037328;28;20075;-87
2022/03/21 07:32:24;;;;;;;31.30;14.32;;;;;;;11.71;29.54;94292.28;5036928;28;20029;-86
2022/03/21 07:34:49;;;;;;;29.20;13.88;;;;;;;10.23;31.50;94291.31;5053411;28;20041;-87
2022/03/21 07:37:15;;;;;;;26.02;14.07;;;;;;;8.74;33.81;94314.81;5036466;28;20116;-86
2022/03/21 07:39:44;;;;;;;32.50;14.88;;;;;;;8.47;35.82;94299.63;5036743;28;20386;-86
2022/03/21 07:42:14;;;;;;;32.30;13.73;;;;;;;8.51;34.97;94310.38;5037134;28;20029;-88
2022/03/21 07:47:58;;;;;;;29.83;13.63;;;;;;;7.44;37.15;94313.88;5053424;28;20110;-86
2022/03/21 07:54:36;;;;;;;24.20;11.60;;;;;;;7.58;36.63;94325.69;5035199;28;20446;-86
2022/03/21 08:04:21;;;;;;;28.83;13.68;;;;;;;7.63;36.66;94304.97;5016916;28;20113;-86
2022/03/21 08:06:47;;;;;;;25.83;13.63;;;;;;;7.68;35.58;94318.13;5016076;28;20076;-86
2022/03/21 08:09:12;;;;;;;25.50;12.63;;;;;;;6.94;37.36;94309.69;5033882;28;20029;-86
2022/03/21 08:11:38;;;;;;;28.35;13.63;;;;;;;7.32;36.67;94307.78;5034099;28;20091;-86
2022/03/21 08:14:03;;;;;;;24.83;13.10;;;;;;;7.65;37.48;94291.69;5016526;28;20045;-86
2022/03/21 08:16:29;;;;;;;24.73;10.77;;;;;;;7.89;36.58;94308.19;5033496;28;20029;-86
2022/03/21 08:18:55;;;;;;;30.13;13.52;;;;;;;7.55;36.32;94313.09;5015918;28;20114;-86
2022/03/21 08:24:52;;;;;;;28.38;12.40;;;;;;;7.86;36.68;94304.22;5025577;28;20095;-85
2022/03/21 08:27:17;;;;;;;24.90;12.27;;;;;;;7.71;39.20;94281.19;5017653;28;20406;-87
2022/03/21 08:29:43;;;;;;;25.80;11.55;;;;;;;7.40;37.12;94307.50;5017182;28;20036;-85
2022/03/21 08:32:08;;;;;;;29.15;13.15;;;;;;;7.67;38.06;94305.31;5047780;28;20124;-87
2022/03/21 08:34:34;;;;;;;25.40;11.90;;;;;;;7.84;37.58;94302.88;5033599;28;20123;-89
2022/03/21 08:37:00;;;;;;;27.23;12.27;;;;;;;7.53;38.46;94309.91;5050181;28;20037;-86
2022/03/21 08:39:25;;;;;;;25.15;10.57;;;;;;;7.94;37.51;94305.69;5050788;28;20582;-86
2022/03/21 08:41:52;;;;;;;28.80;11.82;;;;;;;7.93;37.14;94311.94;5031028;28;20128;-86
2022/03/21 08:44:19;;;;;;;25.13;11.50;;;;;;;7.74;36.92;94303.41;5034944;28;20048;-90
2022/03/21 08:46:46;;;;;;;21.88;10.88;;;;;;;7.51;37.68;94306.75;5051129;28;20025;-86
2022/03/21 08:49:24;;;;;;;26.20;11.57;;;;;;;7.26;37.84;94299.06;5056237;28;20044;-85
2022/03/21 08:51:50;;;;;;;26.20;11.85;;;;;;;7.76;37.34;94303.19;5038251;28;20048;-86
2022/03/21 08:54:16;;;;;;;21.33;11.52;;;;;;;7.90;36.64;94289.72;5075207;28;20513;-86
2022/03/21 09:00:07;;;;;;;26.95;12.02;;;;;;;7.34;38.08;94292.75;5056385;28;20045;-85
2022/03/21 09:02:34;;;;;;;26.23;13.63;;;;;;;7.57;37.08;94282.41;5052325;28;20614;-85
2022/03/21 09:05:20;;;;;;;25.30;13.05;;;;;;;8.08;36.04;94301.88;5055716;28;20136;-87
2022/03/21 09:07:46;;;;;;;29.77;12.52;;;;;;;8.88;34.84;94295.25;5039887;28;20037;-86
2022/03/21 09:10:13;;;;;;;26.50;12.35;;;;;;;8.57;35.15;94293.03;5039831;28;20076;-86
2022/03/21 09:12:44;;;;;;;24.58;12.43;;;;;;;7.96;35.75;94295.84;5039393;28;20090;-86
2022/03/21 09:15:10;;;;;;;21.52;10.95;;;;;;;7.71;35.74;94275.97;5056056;28;20075;-85
2022/03/21 09:17:37;;;;;;;23.75;11.65;;;;;;;8.34;36.13;94284.97;5057357;28;20470;-86
2022/03/21 09:20:04;;;;;;;28.67;12.02;;;;;;;7.97;36.13;94273.97;5023231;28;20482;-86
2022/03/21 09:22:31;;;;;;;19.05;10.55;;;;;;;7.85;37.19;94281.75;5055979;28;20025;-87
2022/03/21 09:24:57;;;;;;;24.98;11.80;;;;;;;8.26;36.09;94282.72;5023052;28;20545;-87
2022/03/21 09:27:22;;;;;;;26.95;11.82;;;;;;;8.30;36.48;94272.59;5021799;28;20130;-84
2022/03/21 09:29:48;;;;;;;23.08;11.73;;;;;;;8.14;36.25;94261.03;5054095;28;20037;-88
2022/03/21 09:32:15;;;;;;;23.08;12.10;;;;;;;8.45;36.75;94272.97;5053827;28;20477;-86
2022/03/21 09:34:40;;;;;;;20.45;10.48;;;;;;;8.43;35.33;94271.59;5037815;28;20091;-87
2022/03/21 09:37:07;;;;;;;21.63;11.05;;;;;;;8.47;35.78;94283.97;5055007;28;20033;-87
2022/03/21 09:39:32;;;;;;;23.10;11.15;;;;;;;8.40;35.20;94282.44;5055947;28;20106;-87
2022/03/21 09:42:00;;;;;;;21.30;10.75;;;;;;;8.87;34.45;94270.16;5055949;28;20474;-86
2022/03/21 09:44:27;;;;;;;25.17;12.00;;;;;;;9.01;34.73;94270.69;5039183;28;20045;-87
2022/03/21 09:46:53;;;;;;;30.90;12.07;;;;;;;8.70;34.38;94271.91;5056186;28;20043;-86
2022/03/21 09:49:25;;;;;;;24.00;10.95;;;;;;;8.79;34.34;94261.91;5022281;28;20037;-86
2022/03/21 09:51:54;;;;;;;21.55;11.90;;;;;;;7.87;34.55;94265.91;5054929;28;20025;-85
2022/03/21 09:54:20;;;;;;;20.73;10.30;;;;;;;8.20;34.94;94269.78;5054759;28;20037;-86
2022/03/21 09:56:46;;;;;;;20.38;9.07;;;;;;;7.71;35.09;94243.91;5038362;28;20040;-86
2022/03/21 09:59:12;;;;;;;20.23;11.13;;;;;;;8.19;35.16;94255.13;5037835;28;20277;-86
2022/03/21 10:01:38;;;;;;;22.70;11.35;;;;;;;8.16;34.94;94266.03;5054924;28;20061;-86
2022/03/21 10:04:07;;;;;;;27.27;12.68;;;;;;;7.76;35.48;94271.91;5055168;28;20037;-86
2022/03/21 10:06:40;;;;;;;26.10;11.23;;;;;;;7.39;35.80;94259.81;5037750;28;20041;-86
2022/03/21 10:09:14;;;;;;;28.63;12.80;;;;;;;7.94;34.85;94266.59;5024519;28;20049;-86
2022/03/21 10:11:52;;;;;;;25.35;11.15;;;;;;;8.04;34.70;94261.63;5037312;28;20041;-86
2022/03/21 10:14:28;;;;;;;26.25;12.38;;;;;;;7.84;35.19;94268.97;5036548;28;20108;-89
2022/03/21 10:16:58;;;;;;;22.48;11.13;;;;;;;8.04;34.69;94260.81;5028521;28;20041;-87
2022/03/21 10:19:24;;;;;;;24.20;10.52;;;;;;;7.63;36.06;94263.28;5031361;28;20084;-86
2022/03/21 10:22:05;;;;;;;31.75;11.63;;;;;;;7.81;35.58;94258.97;5000992;28;20568;-87
2022/03/21 10:24:36;;;;;;;22.88;11.82;;;;;;;8.04;35.78;94253.00;5035481;28;20033;-89
2022/03/21 10:27:02;;;;;;;20.63;10.02;;;;;;;8.07;34.52;94239.50;5037204;28;20095;-87
2022/03/21 10:29:31;;;;;;;24.65;12.93;;;;;;;8.37;33.97;94260.22;5003013;28;20502;-86
2022/03/21 10:31:58;;;;;;;26.25;11.80;;;;;;;9.17;33.85;94250.88;5036807;28;20037;-88
2022/03/21 10:34:30;;;;;;;28.40;12.75;;;;;;;9.34;33.14;94243.03;5036209;28;20033;-88
2022/03/21 10:37:01;;;;;;;26.20;11.93;;;;;;;8.83;33.70;94249.97;5018967;28;20037;-87
2022/03/21 10:39:28;;;;;;;21.52;11.95;;;;;;;9.16;33.09;94239.63;5051774;28;20040;-89
2022/03/21 10:42:03;;;;;;;24.02;10.95;;;;;;;9.39;32.64;94253.63;5035477;28;20094;-87
2022/03/21 10:44:29;;;;;;;28.83;14.45;;;;;;;9.23;32.83;94244.72;5054106;28;20025;-87
2022/03/21 10:47:03;;;;;;;22.85;11.50;;;;;;;9.31;33.75;94236.47;5020452;28;20094;-87
2022/03/21 10:49:33;;;;;;;30.52;13.40;;;;;;;8.89;33.26;94235.97;5036501;28;20095;-88
2022/03/21 10:52:00;;;;;;;28.05;12.02;;;;;;;9.53;33.10;94227.97;5027812;28;20090;-88
2022/03/21 10:54:55;;;;;;;23.63;12.60;;;;;;;9.08;32.31;94226.16;5035112;28;20060;-87
2022/03/21 10:57:37;;;;;;;27.50;13.38;;;;;;;9.35;32.47;94224.53;5037312;28;20041;-87
2022/03/21 11:00:23;;;;;;;25.33;13.20;;;;;;;8.67;33.34;94178.38;5019465;28;20043;-87
2022/03/21 11:03:05;;;;;;;24.40;11.30;;;;;;;8.70;34.58;94224.91;5009192;28;20052;-87
2022/03/21 11:05:33;;;;;;;25.42;12.63;;;;;;;8.95;33.01;94212.31;5053674;28;20025;-86
2022/03/21 11:07:59;;;;;;;17.52;10.27;;;;;;;8.84;32.92;94228.81;5015156;28;20022;-86
2022/03/21 11:10:26;;;;;;;23.85;12.57;;;;;;;8.47;33.58;94221.34;5048724;28;20489;-86
2022/03/21 11:12:54;;;;;;;23.45;11.85;;;;;;;9.05;33.26;94216.16;5035210;28;20557;-88
2022/03/21 11:15:20;;;;;;;17.98;8.65;;;;;;;9.20;32.70;94216.41;5053942;28;20044;-86
2022/03/21 11:17:46;;;;;;;20.02;9.60;;;;;;;8.64;32.97;94218.78;5019563;28;20067;-86
2022/03/21 11:20:15;;;;;;;21.77;11.07;;;;;;;8.90;32.76;94214.06;5020210;28;20044;-86
2022/03/21 11:22:42;;;;;;;26.60;12.90;;;;;;;8.74;33.22;94184.25;5019355;28;20037;-87
2022/03/21 11:25:10;;;;;;;26.85;13.80;;;;;;;9.19;32.89;94204.41;5018956;28;20043;-87
2022/03/21 11:28:06;;;;;;;25.98;13.65;;;;;;;9.78;32.47;94206.66;5031657;28;20029;-86
2022/03/21 11:31:08;;;;;;;25.38;10.70;;;;;;;9.46;31.32;94211.66;5035490;28;20032;-87
2022/03/21 11:37:43;;;;;;;34.60;13.30;;;;;;;8.92;31.22;94142.28;5050183;28;20370;-87
2022/03/21 11:40:55;;;;;;;;;;;;;;;;;;;;;
2022/03/21 12:00:03;;;;;;;;;;;;;;;;;;;;;
2022/03/21 12:03:15;;;;;;;;;;;;;;;;;;;;;
2022/03/21 12:06:57;;;;;;;;;;;;;;;;;;;;;
2022/03/21 12:10:45;;;;;;;;;;;;;;;;;;;;;
2022/03/21 12:26:21;;;;;;;27.70;12.05;;;;;;;9.32;31.95;94158.84;4894710;29;20047;-86
2022/03/21 13:16:39;;;;;;;;;;;;;;;;;;;;;
2022/03/21 13:54:58;;;;;;;26.52;13.35;;;;;;;10.10;30.92;94075.22;4966852;28;20046;-89
2022/03/21 13:57:50;;;;;;;25.60;12.82;;;;;;;10.40;30.87;94085.25;5012825;28;20037;-88
2022/03/21 14:00:54;;;;;;;22.10;10.82;;;;;;;10.01;31.12;94049.47;5041095;28;20041;-88
2022/03/21 14:03:53;;;;;;;26.13;12.70;;;;;;;9.92;31.77;94050.94;5054583;28;20056;-87
2022/03/21 14:07:24;;;;;;;;;;;;;;;;;;;;;
2022/03/21 14:10:12;;;;;;;;;;;;;;;;;;;;;
2022/03/21 14:12:41;;;;;;;24.58;12.77;;;;;;;9.56;31.13;94018.34;5070984;28;20029;-88
2022/03/21 14:15:12;;;;;;;23.02;12.10;;;;;;;10.26;30.75;94058.66;5054137;28;20044;-87
2022/03/21 14:17:42;;;;;;;22.45;11.57;;;;;;;9.74;30.27;94023.25;5053988;28;20059;-87
2022/03/21 14:20:13;;;;;;;29.92;14.38;;;;;;;10.05;30.63;94010.56;5055695;28;20037;-88
2022/03/21 14:22:41;;;;;;;26.98;13.57;;;;;;;9.85;30.50;94007.72;5054429;28;20119;-88
2022/03/21 14:28:27;;;;;;;24.45;12.07;;;;;;;9.84;30.85;94040.94;5056435;28;20048;-88
2022/03/21 14:31:18;;;;;;;25.35;13.02;;;;;;;9.64;30.55;94015.31;5054228;28;20062;-87
2022/03/21 14:33:46;;;;;;;27.92;14.07;;;;;;;9.63;30.85;94011.09;5053962;28;20110;-88
2022/03/21 14:36:37;;;;;;;25.13;13.85;;;;;;;10.16;30.72;94038.41;5053971;28;20114;-92
2022/03/21 14:45:50;;;;;;;29.95;12.90;;;;;;;9.77;30.24;94003.69;5054935;28;20047;-87
2022/03/21 14:48:16;;;;;;;27.27;13.25;;;;;;;9.51;30.66;94013.81;5033365;28;20467;-87
2022/03/21 14:50:44;;;;;;;23.00;11.80;;;;;;;9.47;31.39;93991.03;5038891;28;20090;-88
2022/03/21 14:53:10;;;;;;;26.73;13.55;;;;;;;9.63;30.63;94000.63;5052862;28;20503;-87
2022/03/21 14:55:36;;;;;;;22.77;12.52;;;;;;;10.10;30.60;94022.91;5052329;28;20037;-87
2022/03/21 14:58:05;;;;;;;26.58;13.95;;;;;;;9.65;30.54;94001.19;5053106;28;20430;-87
2022/03/21 15:00:34;;;;;;;25.02;12.93;;;;;;;9.20;31.25;93978.66;5052417;28;20041;-87
2022/03/21 15:03:09;;;;;;;17.25;10.32;;;;;;;9.13;30.71;94004.16;5054544;28;20051;-87
2022/03/21 15:05:41;;;;;;;28.42;12.82;;;;;;;9.30;30.89;94031.06;5036270;28;20044;-87
2022/03/21 15:08:33;;;;;;;23.42;12.40;;;;;;;9.69;31.26;94038.13;5036754;28;20051;-87
2022/03/21 15:11:13;;;;;;;25.45;12.32;;;;;;;9.75;30.93;93979.63;5029676;28;20067;-89
2022/03/21 15:13:47;;;;;;;26.85;12.75;;;;;;;9.59;32.70;93986.47;5032586;28;20546;-86
2022/03/21 15:16:37;;;;;;;22.85;11.80;;;;;;;9.71;30.27;94013.31;5045681;28;20369;-87
2022/03/21 15:19:07;;;;;;;;;;;;;;;9.67;30.45;94027.88;5052402;28;20516;-87
2022/03/21 15:21:47;;;;;;;25.15;13.05;;;;;;;9.69;30.41;94022.41;5035976;28;19921;-87
2022/03/21 15:24:24;;;;;;;21.95;11.48;;;;;;;9.50;31.43;94001.00;5020544;28;20065;-86
2022/03/21 15:26:55;;;;;;;28.40;13.00;;;;;;;9.32;31.09;93960.25;5051560;28;20048;-86
2022/03/21 15:29:24;;;;;;;24.52;13.00;;;;;;;9.62;30.78;94016.59;5035861;28;20041;-87
2022/03/21 15:31:59;;;;;;;23.98;12.15;;;;;;;9.50;30.20;94006.22;5026301;28;20044;-87
2022/03/21 15:34:31;;;;;;;24.73;12.75;;;;;;;9.42;30.51;94006.66;5050626;28;20090;-87
2022/03/21 15:48:26;;;;;;;;;;;;;;;;;;;;;
2022/03/21 15:51:48;;;;;;;25.27;12.73;;;;;;;9.25;30.75;93999.63;5043437;28;20035;-87
2022/03/21 15:55:12;;;;;;;;;;;;;;;;;;;;;
2022/03/21 16:09:16;;;;;;;26.73;13.45;;;;;;;8.93;32.20;94025.53;4938882;28;20048;-87
2022/03/21 16:12:20;;;;;;;25.00;12.52;;;;;;;9.18;31.67;94017.28;5014056;28;20045;-87
2022/03/21 16:15:16;;;;;;;;;;;;;;;;;;;;;
2022/03/21 16:18:52;;;;;;;;;;;;;;;;;;;;;
2022/03/21 16:21:37;;;;;;;33.20;13.38;;;;;;;9.31;31.70;93982.97;4954687;28;20041;-87
2022/03/21 16:24:06;;;;;;;31.60;14.38;;;;;;;9.51;31.29;93998.16;4999775;28;20076;-87
2022/03/21 16:26:32;;;;;;;28.48;13.73;;;;;;;9.22;31.73;93965.34;4983559;28;20036;-87
2022/03/21 16:28:58;;;;;;;28.65;13.70;;;;;;;9.31;32.40;93990.81;5033916;28;20044;-87
2022/03/21 16:31:29;;;;;;;29.95;14.05;;;;;;;9.24;32.96;93990.22;5015948;28;20474;-87
2022/03/21 16:33:56;;;;;;;29.38;13.85;;;;;;;9.22;32.68;94009.78;4999838;28;20045;-87
2022/03/21 16:36:24;;;;;;;28.13;14.18;;;;;;;9.08;33.22;93997.03;4999513;28;20125;-87
2022/03/21 16:38:53;;;;;;;24.42;13.88;;;;;;;8.80;33.80;94025.84;4999295;28;20510;-87
2022/03/21 16:41:23;;;;;;;28.23;14.45;;;;;;;8.65;33.44;94008.16;5033030;28;20033;-87
2022/03/21 16:43:50;;;;;;;27.73;14.82;;;;;;;8.61;33.71;94020.88;5015767;28;20041;-87
2022/03/21 16:46:17;;;;;;;27.25;14.23;;;;;;;8.51;33.94;94016.28;4979670;28;20430;-87
2022/03/21 16:48:46;;;;;;;27.25;14.82;;;;;;;8.49;34.32;94026.16;4993356;28;20490;-87
2022/03/21 16:51:18;;;;;;;30.70;14.27;;;;;;;8.36;33.81;94015.97;5015789;28;20081;-87
2022/03/21 16:53:45;;;;;;;31.92;14.63;;;;;;;8.36;34.29;94023.81;5015549;28;20418;-87
2022/03/21 16:56:11;;;;;;;30.13;14.63;;;;;;;8.28;34.47;94021.56;4998875;28;20038;-90
2022/03/21 16:58:42;;;;;;;31.45;13.95;;;;;;;8.11;34.42;93998.84;5014970;28;20103;-87
2022/03/21 17:10:19;;;;;;;26.13;13.55;;;;;;;7.49;35.06;93959.59;5047518;28;20568;-88
2022/03/21 17:24:49;;;;;;;;;;;;;;;;;;;;;
2022/03/21 17:32:16;;;;;;;30.30;13.23;;;;;;;6.38;37.98;93969.94;4918168;29;20040;-88
2022/03/21 17:35:31;;;;;;;;;;;;;;;;;;;;;
2022/03/21 17:45:09;;;;;;;30.30;14.02;;;;;;;6.06;38.89;93983.19;4882114;29;20052;-87
2022/03/21 17:47:35;;;;;;;30.85;12.73;;;;;;;6.12;39.15;94004.91;4903170;29;20816;-86
2022/03/21 17:50:02;;;;;;;30.83;13.75;;;;;;;6.04;39.08;94004.22;4994506;28;20144;-85
2022/03/21 17:52:28;;;;;;;29.65;14.90;;;;;;;6.25;39.07;94041.13;5021170;28;20158;-86
2022/03/21 17:54:55;;;;;;;26.15;13.85;;;;;;;6.11;38.59;94021.53;5037892;28;20045;-87
2022/03/21 17:57:29;;;;;;;27.38;14.57;;;;;;;6.04;38.45;94024.22;5037158;28;20033;-86
2022/03/21 17:59:55;;;;;;;27.35;13.98;;;;;;;6.13;37.98;94042.91;5022295;28;20037;-86
2022/03/21 18:02:21;;;;;;;28.10;14.18;;;;;;;5.98;38.48;94025.09;5040339;28;20399;-88
2022/03/21 18:04:49;;;;;;;32.30;13.57;;;;;;;5.72;38.71;94000.19;5037818;28;20717;-86